Time;durP1;ratioP1;P1;durP2;ratioP2;P2;SDS_P1;SDS_P2;PMS_P1;PMS_P2;Temp;Humidity;BMP_temperature;BMP_pressure;BME280_temperature;BME280_humidity;BME280_pressure;Samples;Min_cycle;Max_cycle;Signal;HPM_P1;HPM_P2
2023/06/12 00:02:21;;;;;;;5.00;4.60;;;23.00;49.00;;;;;;5055023;28;20345;-83
2023/06/12 00:04:48;;;;;;;4.22;3.92;;;23.00;48.80;;;;;;5055220;28;20650;-83
2023/06/12 00:07:16;;;;;;;4.60;4.30;;;23.00;49.00;;;;;;5055325;28;20199;-83
2023/06/12 00:09:43;;;;;;;5.43;4.88;;;22.90;48.90;;;;;;5055389;28;20196;-83
2023/06/12 00:12:11;;;;;;;4.85;4.45;;;23.00;48.90;;;;;;5057171;28;20731;-83
2023/06/12 00:14:38;;;;;;;5.03;4.53;;;22.90;48.70;;;;;;5055869;28;20195;-83
2023/06/12 00:17:06;;;;;;;4.20;3.90;;;22.90;48.70;;;;;;5054733;28;20291;-83
2023/06/12 00:19:33;;;;;;;4.35;4.05;;;22.90;48.70;;;;;;5038060;28;20219;-83
2023/06/12 00:22:01;;;;;;;4.35;4.03;;;22.90;48.80;;;;;;5064411;28;20223;-83
2023/06/12 00:24:30;;;;;;;4.65;4.35;;;22.90;48.70;;;;;;5055008;28;20542;-83
2023/06/12 00:26:57;;;;;;;4.90;4.50;;;22.80;48.50;;;;;;5054475;28;20284;-83
2023/06/12 00:29:25;;;;;;;4.53;4.22;;;22.90;48.70;;;;;;5054799;28;20199;-83
2023/06/12 00:31:52;;;;;;;4.35;3.97;;;22.80;48.70;;;;;;5054187;28;20225;-83
2023/06/12 00:34:19;;;;;;;4.40;4.10;;;22.70;48.50;;;;;;5055251;28;20249;-83
2023/06/12 00:36:47;;;;;;;4.55;4.25;;;22.80;48.60;;;;;;5054764;28;20286;-83
2023/06/12 00:39:14;;;;;;;4.30;4.00;;;22.80;48.60;;;;;;5054633;28;20211;-81
2023/06/12 00:41:42;;;;;;;4.55;4.25;;;22.80;48.70;;;;;;5054641;28;20242;-82
2023/06/12 00:44:09;;;;;;;4.47;4.07;;;22.80;48.60;;;;;;5038629;28;20192;-82
2023/06/12 00:46:37;;;;;;;4.60;4.20;;;22.80;48.70;;;;;;5054732;28;20210;-82
2023/06/12 00:49:05;;;;;;;4.95;4.55;;;22.70;48.50;;;;;;5038071;28;20223;-82
2023/06/12 00:51:33;;;;;;;4.07;3.78;;;22.70;48.50;;;;;;5054833;28;20720;-82
2023/06/12 00:54:00;;;;;;;4.57;4.20;;;22.70;48.70;;;;;;5038340;28;20210;-82
2023/06/12 00:56:28;;;;;;;4.90;4.50;;;22.70;48.60;;;;;;5054681;28;20192;-82
2023/06/12 00:58:56;;;;;;;4.53;4.15;;;22.70;48.70;;;;;;5055441;28;20219;-83
2023/06/12 01:01:25;;;;;;;4.50;4.20;;;22.70;48.80;;;;;;5053697;28;20219;-83
2023/06/12 01:03:57;;;;;;;4.57;4.28;;;22.70;48.80;;;;;;5053682;28;20290;-83
2023/06/12 01:06:29;;;;;;;4.70;4.30;;;22.70;48.80;;;;;;5054749;28;20638;-83
2023/06/12 01:09:00;;;;;;;4.70;4.30;;;22.60;48.80;;;;;;5054192;28;20270;-83
2023/06/12 01:11:27;;;;;;;4.47;4.15;;;22.60;48.70;;;;;;5053969;28;20215;-83
2023/06/12 01:13:57;;;;;;;4.57;4.28;;;22.60;48.70;;;;;;5054095;28;20191;-83
2023/06/12 01:16:24;;;;;;;4.10;3.80;;;22.60;48.70;;;;;;5053624;28;20677;-83
2023/06/12 01:18:52;;;;;;;4.38;4.05;;;22.50;48.70;;;;;;5037655;28;20212;-80
2023/06/12 01:21:21;;;;;;;4.68;4.28;;;22.50;48.60;;;;;;5053793;28;20218;-80
2023/06/12 01:23:58;;;;;;;4.57;4.18;;;22.50;48.70;;;;;;5054928;28;20226;-80
2023/06/12 01:26:46;;;;;;;5.03;4.13;;;22.50;48.70;;;;;;5037481;28;20290;-80
2023/06/12 01:29:37;;;;;;;4.88;4.47;;;22.50;48.70;;;;;;5037697;28;20542;-80
2023/06/12 01:32:07;;;;;;;4.80;4.40;;;22.50;48.90;;;;;;5053369;28;20215;-80
2023/06/12 01:34:38;;;;;;;4.65;4.25;;;22.50;48.60;;;;;;5053808;28;20636;-80
2023/06/12 01:37:13;;;;;;;4.68;4.28;;;22.50;48.80;;;;;;5037734;28;20191;-81
2023/06/12 01:39:42;;;;;;;4.65;4.30;;;22.50;48.80;;;;;;5053927;28;20305;-81
2023/06/12 01:42:10;;;;;;;4.28;3.97;;;22.50;48.80;;;;;;5053836;28;20216;-81
2023/06/12 01:44:38;;;;;;;4.47;4.18;;;22.40;48.70;;;;;;5054212;28;20197;-81
2023/06/12 01:47:07;;;;;;;4.85;4.28;;;22.40;48.80;;;;;;5054178;28;20210;-81
2023/06/12 01:49:34;;;;;;;4.90;4.50;;;22.40;48.90;;;;;;5054641;28;20643;-81
2023/06/12 01:52:02;;;;;;;4.60;4.20;;;22.40;48.70;;;;;;5054182;28;20222;-81
2023/06/12 01:54:33;;;;;;;4.30;4.00;;;22.40;48.80;;;;;;5054776;28;20282;-81
2023/06/12 01:57:01;;;;;;;4.60;4.20;;;22.40;48.70;;;;;;5054056;28;20244;-81
2023/06/12 01:59:34;;;;;;;4.90;4.50;;;22.40;48.90;;;;;;5054368;28;20207;-81
2023/06/12 02:02:01;;;;;;;4.43;4.13;;;22.40;49.00;;;;;;5055621;28;20223;-81
2023/06/12 02:04:30;;;;;;;4.50;4.20;;;22.30;48.80;;;;;;5054680;28;20191;-81
2023/06/12 02:07:00;;;;;;;4.57;4.20;;;22.40;48.90;;;;;;5055319;28;20188;-81
2023/06/12 02:09:28;;;;;;;4.38;3.97;;;22.30;48.90;;;;;;5055072;28;20676;-81
2023/06/12 02:11:56;;;;;;;4.65;4.25;;;22.30;48.90;;;;;;5039103;28;20302;-82
2023/06/12 02:14:24;;;;;;;4.70;4.30;;;22.30;48.90;;;;;;5038090;28;20196;-82
2023/06/12 02:16:53;;;;;;;4.50;4.10;;;22.30;48.90;;;;;;5054933;28;20225;-81
2023/06/12 02:19:25;;;;;;;4.68;4.28;;;22.30;48.90;;;;;;5055760;28;20227;-81
2023/06/12 02:21:54;;;;;;;4.53;4.20;;;22.30;49.00;;;;;;5054496;28;20215;-81
2023/06/12 02:24:23;;;;;;;4.15;3.85;;;22.30;48.90;;;;;;5055056;28;20203;-81
2023/06/12 02:26:50;;;;;;;4.93;4.45;;;22.30;48.90;;;;;;5054992;28;20195;-81
2023/06/12 02:29:17;;;;;;;4.63;4.28;;;22.20;48.90;;;;;;5055977;28;20250;-81
2023/06/12 02:31:48;;;;;;;4.72;4.32;;;22.30;49.30;;;;;;5068930;28;20328;-81
2023/06/12 02:34:16;;;;;;;4.30;4.00;;;22.30;49.00;;;;;;5073081;28;20187;-81
2023/06/12 02:36:43;;;;;;;4.78;4.38;;;22.20;48.90;;;;;;5056025;28;20206;-81
2023/06/12 02:39:17;;;;;;;4.40;4.07;;;22.20;49.00;;;;;;5064418;28;20215;-82
2023/06/12 02:41:46;;;;;;;4.30;4.00;;;22.20;49.70;;;;;;5061720;28;20212;-81
2023/06/12 02:44:15;;;;;;;4.40;4.10;;;22.20;49.10;;;;;;5059370;28;20259;-81
2023/06/12 02:46:51;;;;;;;4.78;4.38;;;22.20;49.10;;;;;;5059370;28;20256;-81
2023/06/12 02:49:18;;;;;;;4.72;4.32;;;22.20;49.10;;;;;;5057620;28;20195;-81
2023/06/12 02:51:46;;;;;;;4.28;3.97;;;22.20;49.20;;;;;;5057325;28;20265;-81
2023/06/12 02:54:15;;;;;;;4.45;4.15;;;22.10;49.20;;;;;;5059494;28;20221;-81
2023/06/12 02:56:45;;;;;;;5.00;4.60;;;22.10;49.20;;;;;;5061765;28;20199;-81
2023/06/12 02:59:14;;;;;;;4.93;4.53;;;22.10;49.30;;;;;;5061397;28;20222;-81
2023/06/12 03:01:43;;;;;;;4.90;4.15;;;22.20;49.20;;;;;;5060867;28;20340;-81
2023/06/12 03:04:18;;;;;;;5.10;4.70;;;22.10;49.10;;;;;;5045118;28;20195;-81
2023/06/12 03:06:47;;;;;;;4.80;4.35;;;22.10;49.10;;;;;;5059295;28;20245;-81
2023/06/12 03:09:15;;;;;;;4.55;4.15;;;22.10;49.70;;;;;;5058389;28;20539;-81
2023/06/12 03:11:44;;;;;;;4.47;4.18;;;22.10;49.10;;;;;;5056798;28;20701;-81
2023/06/12 03:14:12;;;;;;;4.68;4.28;;;22.10;49.20;;;;;;5056478;28;20664;-81
2023/06/12 03:16:39;;;;;;;5.20;4.80;;;22.10;49.30;;;;;;5056532;28;20730;-81
2023/06/12 03:19:07;;;;;;;4.53;4.10;;;22.10;49.30;;;;;;5040075;28;20711;-81
2023/06/12 03:21:35;;;;;;;4.78;4.40;;;22.10;49.20;;;;;;5056255;28;20223;-81
2023/06/12 03:24:02;;;;;;;4.80;4.40;;;22.10;49.20;;;;;;5056506;28;20204;-81
2023/06/12 03:26:31;;;;;;;4.70;4.30;;;22.10;49.30;;;;;;5056429;28;20191;-81
2023/06/12 03:29:01;;;;;;;5.00;4.60;;;22.20;49.40;;;;;;5056725;28;20192;-81
2023/06/12 03:31:31;;;;;;;5.28;4.78;;;22.20;49.20;;;;;;5056377;28;20226;-81
2023/06/12 03:34:00;;;;;;;4.85;4.45;;;22.20;48.90;;;;;;5056101;28;20206;-82
2023/06/12 03:36:28;;;;;;;4.53;4.18;;;22.30;48.90;;;;;;5056020;28;20668;-81
2023/06/12 03:38:56;;;;;;;4.15;3.85;;;22.30;48.70;;;;;;5039801;28;20215;-81
2023/06/12 03:41:26;;;;;;;4.75;4.40;;;22.30;48.80;;;;;;5057041;28;20697;-81
2023/06/12 03:43:53;;;;;;;4.50;4.15;;;22.30;48.80;;;;;;5039768;28;20676;-81
2023/06/12 03:46:22;;;;;;;4.95;4.55;;;22.30;48.70;;;;;;5065910;28;20225;-81
2023/06/12 03:48:49;;;;;;;4.50;4.20;;;22.30;48.70;;;;;;5057343;28;20318;-81
2023/06/12 03:51:16;;;;;;;4.32;3.92;;;22.40;48.90;;;;;;5056384;28;20219;-81
2023/06/12 03:53:44;;;;;;;4.22;3.92;;;22.30;48.70;;;;;;5056781;28;20249;-81
2023/06/12 03:56:11;;;;;;;4.78;4.38;;;22.30;48.70;;;;;;5056062;28;20192;-81
2023/06/12 03:58:39;;;;;;;4.28;3.97;;;22.30;48.70;;;;;;5056026;28;20195;-81
2023/06/12 04:01:06;;;;;;;4.20;3.90;;;22.30;48.70;;;;;;5056300;28;20223;-81
2023/06/12 04:03:38;;;;;;;4.95;4.20;;;22.30;48.70;;;;;;5056483;28;20203;-81
2023/06/12 04:06:05;;;;;;;4.65;4.25;;;22.30;48.70;;;;;;5056454;28;20608;-82
2023/06/12 04:08:33;;;;;;;5.00;4.60;;;22.30;48.60;;;;;;5057090;28;20199;-81
2023/06/12 04:11:02;;;;;;;4.13;3.83;;;22.40;48.70;;;;;;5057039;28;20211;-81
2023/06/12 04:13:30;;;;;;;5.13;4.63;;;22.40;48.80;;;;;;5057073;28;20215;-82
2023/06/12 04:15:57;;;;;;;5.50;5.00;;;22.20;49.80;;;;;;5055859;28;20653;-81
2023/06/12 04:18:25;;;;;;;5.18;4.75;;;22.10;50.00;;;;;;5055666;28;20200;-82
2023/06/12 04:20:55;;;;;;;5.05;4.65;;;22.00;50.50;;;;;;5055899;28;20732;-82
2023/06/12 04:23:26;;;;;;;6.18;4.78;;;21.90;50.40;;;;;;5038676;28;20266;-82
2023/06/12 04:25:54;;;;;;;5.65;4.93;;;21.90;50.20;;;;;;5055615;28;20195;-81
2023/06/12 04:28:21;;;;;;;6.88;4.80;;;21.90;50.30;;;;;;5038895;28;20199;-81
2023/06/12 04:30:49;;;;;;;4.80;4.40;;;22.00;50.30;;;;;;5054654;28;20222;-80
2023/06/12 04:33:17;;;;;;;5.28;4.50;;;22.00;50.30;;;;;;5054455;28;20207;-80
2023/06/12 04:35:45;;;;;;;5.68;4.68;;;22.10;50.40;;;;;;5054669;28;20195;-81
2023/06/12 04:38:15;;;;;;;4.97;4.57;;;22.00;50.30;;;;;;5054294;28;20192;-81
2023/06/12 04:40:44;;;;;;;6.15;5.13;;;22.10;50.40;;;;;;5059424;28;20689;-81
2023/06/12 04:43:11;;;;;;;4.93;4.45;;;22.10;50.80;;;;;;5059269;28;20194;-81
2023/06/12 04:45:44;;;;;;;5.00;4.60;;;22.20;51.00;;;;;;5058734;28;20203;-81
2023/06/12 04:48:12;;;;;;;4.82;4.47;;;22.30;50.60;;;;;;5059234;28;20188;-81
2023/06/12 04:50:39;;;;;;;5.00;4.60;;;22.40;50.40;;;;;;5058654;28;20237;-81
2023/06/12 04:53:07;;;;;;;4.82;4.38;;;22.50;50.20;;;;;;5059520;28;20222;-81
2023/06/12 04:55:35;;;;;;;5.20;4.80;;;22.70;50.10;;;;;;5059403;28;20249;-80
2023/06/12 04:58:03;;;;;;;5.00;4.60;;;22.80;50.00;;;;;;5063267;28;20607;-80
2023/06/12 05:00:30;;;;;;;5.28;4.78;;;22.90;49.90;;;;;;5064460;28;20222;-80
2023/06/12 05:02:59;;;;;;;5.15;4.68;;;23.00;49.60;;;;;;5065223;28;20227;-80
2023/06/12 05:05:27;;;;;;;4.80;4.40;;;23.20;49.60;;;;;;5064258;28;20191;-80
2023/06/12 05:07:54;;;;;;;4.75;4.45;;;23.30;49.20;;;;;;5064307;28;20233;-80
2023/06/12 05:10:22;;;;;;;4.85;4.30;;;23.40;48.80;;;;;;5065108;28;20219;-82
2023/06/12 05:12:51;;;;;;;4.70;4.30;;;23.50;48.70;;;;;;5057580;28;20222;-80
2023/06/12 05:15:18;;;;;;;4.78;4.30;;;23.60;48.70;;;;;;5054800;28;20246;-82
2023/06/12 05:17:45;;;;;;;5.10;4.70;;;23.70;48.40;;;;;;5054032;28;20203;-83
2023/06/12 05:20:12;;;;;;;5.07;4.68;;;23.80;48.10;;;;;;5054364;28;20272;-82
2023/06/12 05:22:40;;;;;;;5.55;4.47;;;24.00;48.20;;;;;;5054359;28;20211;-81
2023/06/12 05:25:08;;;;;;;5.32;4.82;;;24.00;47.90;;;;;;5054001;28;20199;-84
2023/06/12 05:27:35;;;;;;;5.18;4.78;;;24.10;47.90;;;;;;5053741;28;20214;-84
2023/06/12 05:30:06;;;;;;;5.72;4.70;;;24.20;48.00;;;;;;5053476;28;20199;-84
2023/06/12 05:32:33;;;;;;;4.97;4.55;;;24.30;47.80;;;;;;5053828;28;20301;-84
2023/06/12 05:35:01;;;;;;;5.30;4.90;;;24.40;48.30;;;;;;5054030;28;20199;-82
2023/06/12 05:37:29;;;;;;;4.78;4.38;;;24.50;47.50;;;;;;5054554;28;20269;-80
2023/06/12 05:39:57;;;;;;;5.13;4.72;;;24.60;47.20;;;;;;5022036;28;20243;-79
2023/06/12 05:42:24;;;;;;;4.97;4.57;;;24.70;46.90;;;;;;5054939;28;20242;-79
2023/06/12 05:47:33;;;;;;;4.80;4.25;;;24.90;46.30;;;;;;5027799;28;20216;-77
2023/06/12 05:50:00;;;;;;;5.35;4.85;;;25.10;46.20;;;;;;5014118;28;20268;-77
2023/06/12 05:52:27;;;;;;;5.28;4.63;;;25.10;45.90;;;;;;5029726;28;20220;-77
2023/06/12 05:54:54;;;;;;;5.07;4.68;;;25.20;45.70;;;;;;5030478;28;20208;-77
2023/06/12 05:57:21;;;;;;;4.60;4.20;;;25.30;45.40;;;;;;5013188;28;20643;-77
2023/06/12 05:59:48;;;;;;;5.70;4.03;;;25.40;45.90;;;;;;5013159;28;20224;-77
2023/06/12 06:02:15;;;;;;;4.72;4.32;;;25.50;45.00;;;;;;5013174;28;20291;-77
2023/06/12 06:04:44;;;;;;;4.68;4.30;;;25.60;45.00;;;;;;5013156;28;20223;-77
2023/06/12 06:07:12;;;;;;;5.20;4.70;;;25.70;44.70;;;;;;5020422;28;20211;-76
2023/06/12 06:09:40;;;;;;;5.20;4.68;;;25.80;44.60;;;;;;5029286;28;20577;-76
2023/06/12 06:12:08;;;;;;;5.35;4.55;;;25.80;44.30;;;;;;5013117;28;20642;-76
2023/06/12 06:14:35;;;;;;;4.38;4.07;;;25.90;44.20;;;;;;5012600;28;20205;-76
2023/06/12 06:17:02;;;;;;;4.70;4.30;;;26.00;44.00;;;;;;5029443;28;20663;-76
2023/06/12 06:19:32;;;;;;;4.45;4.05;;;26.10;43.80;;;;;;5030343;28;20197;-76
2023/06/12 06:22:04;;;;;;;4.25;3.95;;;26.20;43.70;;;;;;5033034;28;20560;-76
2023/06/12 06:24:32;;;;;;;4.65;4.25;;;26.30;43.50;;;;;;5033248;28;20196;-76
2023/06/12 06:27:00;;;;;;;4.68;4.35;;;26.30;43.30;;;;;;5033014;28;20569;-75
2023/06/12 06:29:27;;;;;;;4.50;4.20;;;26.40;43.10;;;;;;5033077;28;20655;-75
2023/06/12 06:31:54;;;;;;;4.75;4.35;;;26.40;42.90;;;;;;5033079;28;20407;-75
2023/06/12 06:34:21;;;;;;;4.50;4.10;;;26.60;42.80;;;;;;5016293;28;20200;-75
2023/06/12 06:36:48;;;;;;;4.70;4.30;;;26.60;42.60;;;;;;5016787;28;20208;-75
2023/06/12 06:39:18;;;;;;;4.63;4.32;;;26.60;42.40;;;;;;5032811;28;20200;-75
2023/06/12 06:41:45;;;;;;;4.22;3.88;;;26.70;42.30;;;;;;5016175;28;20220;-75
2023/06/12 06:44:12;;;;;;;4.78;4.38;;;26.80;42.20;;;;;;5032624;28;20203;-75
2023/06/12 06:46:42;;;;;;;4.65;4.25;;;26.80;42.00;;;;;;5032772;28;20212;-75
2023/06/12 06:49:10;;;;;;;4.60;4.20;;;26.90;41.90;;;;;;5032699;28;20197;-75
2023/06/12 06:51:38;;;;;;;4.70;4.30;;;26.90;41.80;;;;;;5032564;28;20300;-75
2023/06/12 06:54:05;;;;;;;4.20;3.90;;;27.00;41.90;;;;;;5016189;28;20200;-75
2023/06/12 06:56:34;;;;;;;5.05;4.55;;;27.00;41.80;;;;;;5016140;28;20197;-75
2023/06/12 06:59:02;;;;;;;4.40;4.10;;;27.10;41.70;;;;;;5015895;28;20291;-75
2023/06/12 07:01:29;;;;;;;4.45;4.05;;;27.10;41.50;;;;;;5016027;28;20231;-75
2023/06/12 07:03:56;;;;;;;4.30;4.00;;;27.10;41.40;;;;;;5016276;28;20215;-74
2023/06/12 07:06:24;;;;;;;4.50;4.20;;;27.20;41.30;;;;;;5033329;28;20227;-74
2023/06/12 07:08:51;;;;;;;4.10;3.80;;;27.20;41.20;;;;;;5016997;28;20188;-75
2023/06/12 07:11:18;;;;;;;4.70;4.30;;;27.30;41.20;;;;;;5016356;28;20220;-75
2023/06/12 07:13:47;;;;;;;4.15;3.85;;;27.30;41.00;;;;;;5016624;28;20658;-75
2023/06/12 07:16:14;;;;;;;4.43;4.03;;;27.30;40.90;;;;;;5032624;28;20250;-75
2023/06/12 07:18:42;;;;;;;4.10;3.80;;;27.40;40.90;;;;;;5015882;28;20215;-75
2023/06/12 07:21:09;;;;;;;4.35;3.95;;;27.40;40.70;;;;;;5032090;28;20223;-75
2023/06/12 07:23:38;;;;;;;4.38;4.00;;;27.50;40.60;;;;;;5015465;28;20200;-75
2023/06/12 07:26:05;;;;;;;4.40;4.00;;;27.50;40.60;;;;;;5016131;28;20303;-75
2023/06/12 07:28:32;;;;;;;4.10;3.80;;;27.60;40.40;;;;;;5015506;28;20194;-75
2023/06/12 07:31:01;;;;;;;4.22;3.92;;;27.60;40.40;;;;;;5030872;28;20270;-75
2023/06/12 07:33:29;;;;;;;4.20;3.90;;;27.60;40.30;;;;;;5031749;28;20709;-75
2023/06/12 07:35:56;;;;;;;4.00;3.58;;;27.60;40.20;;;;;;5032275;28;20196;-75
2023/06/12 07:38:23;;;;;;;4.25;3.95;;;27.70;40.20;;;;;;5031679;28;20669;-75
2023/06/12 07:40:50;;;;;;;4.70;4.28;;;27.70;40.10;;;;;;5032065;28;20227;-74
2023/06/12 07:43:18;;;;;;;4.75;4.35;;;27.70;40.10;;;;;;5031892;28;20196;-74
2023/06/12 07:45:46;;;;;;;4.20;3.90;;;27.80;40.00;;;;;;5031859;28;20200;-74
2023/06/12 07:48:15;;;;;;;3.95;3.65;;;27.80;40.00;;;;;;5015102;28;20184;-74
2023/06/12 07:50:43;;;;;;;4.30;4.00;;;27.80;39.90;;;;;;5031943;28;20238;-74
2023/06/12 07:53:10;;;;;;;4.13;3.83;;;27.80;39.80;;;;;;5015010;28;20200;-74
2023/06/12 07:55:38;;;;;;;4.32;4.03;;;27.90;39.80;;;;;;5015764;28;20196;-74
2023/06/12 07:58:06;;;;;;;3.95;3.65;;;27.90;39.80;;;;;;5031723;28;20314;-76
2023/06/12 08:00:35;;;;;;;4.20;3.90;;;27.90;39.70;;;;;;5015491;28;20216;-76
2023/06/12 08:03:03;;;;;;;4.32;3.90;;;28.00;39.70;;;;;;5031577;28;20200;-76
2023/06/12 08:05:38;;;;;;;4.25;3.85;;;28.00;39.70;;;;;;5015317;28;20271;-76
2023/06/12 08:08:12;;;;;;;4.28;3.97;;;28.00;39.60;;;;;;5014798;28;20192;-76
2023/06/12 08:10:40;;;;;;;3.78;3.50;;;28.00;39.60;;;;;;5031138;28;20216;-76
2023/06/12 08:13:07;;;;;;;4.25;3.95;;;28.10;39.60;;;;;;5031319;28;20278;-76
2023/06/12 08:15:35;;;;;;;4.63;3.95;;;28.10;39.50;;;;;;5031401;28;20583;-76
2023/06/12 08:18:04;;;;;;;3.80;3.50;;;28.10;39.40;;;;;;5031242;28;20192;-76
2023/06/12 08:20:31;;;;;;;3.97;3.67;;;28.10;39.40;;;;;;5014470;28;20242;-76
2023/06/12 08:23:00;;;;;;;3.85;3.55;;;28.10;39.40;;;;;;5015354;28;20621;-76
2023/06/12 08:25:28;;;;;;;4.10;3.80;;;28.10;39.40;;;;;;5014468;28;20200;-76
2023/06/12 08:27:57;;;;;;;4.00;3.72;;;28.10;39.40;;;;;;5030743;28;20203;-76
2023/06/12 08:30:24;;;;;;;4.25;3.95;;;28.10;39.40;;;;;;5030822;28;20720;-76
2023/06/12 08:32:51;;;;;;;4.22;3.83;;;28.10;39.50;;;;;;5014483;28;20557;-76
2023/06/12 08:35:19;;;;;;;4.28;3.97;;;28.10;39.70;;;;;;5014481;28;20200;-76
2023/06/12 08:37:48;;;;;;;3.72;3.42;;;27.90;39.70;;;;;;4999146;28;20663;-76
2023/06/12 08:40:16;;;;;;;4.13;3.80;;;27.90;39.90;;;;;;5030762;28;20200;-76
2023/06/12 08:42:44;;;;;;;4.30;4.00;;;27.80;40.10;;;;;;5016932;28;20259;-76
2023/06/12 08:45:12;;;;;;;4.30;4.00;;;27.60;40.30;;;;;;5031160;28;20219;-76
2023/06/12 08:47:39;;;;;;;4.00;3.70;;;27.50;40.60;;;;;;5014307;28;20188;-76
2023/06/12 08:50:07;;;;;;;4.57;4.18;;;27.40;40.80;;;;;;5013919;28;20204;-76
2023/06/12 08:52:34;;;;;;;4.03;3.70;;;27.30;41.00;;;;;;5030405;28;20215;-76
2023/06/12 08:55:01;;;;;;;4.28;3.88;;;27.30;41.00;;;;;;5014226;28;20200;-76
2023/06/12 08:57:29;;;;;;;4.00;3.70;;;27.40;40.90;;;;;;5030324;28;20195;-75
2023/06/12 08:59:56;;;;;;;3.88;3.55;;;27.40;40.70;;;;;;5013674;28;20208;-75
2023/06/12 09:02:23;;;;;;;4.32;4.00;;;27.40;40.70;;;;;;5030005;28;20220;-75
2023/06/12 09:04:54;;;;;;;3.70;3.47;;;27.40;40.90;;;;;;5013621;28;20203;-75
2023/06/12 09:07:21;;;;;;;3.70;3.45;;;27.30;40.80;;;;;;5030355;28;20330;-75
2023/06/12 09:09:48;;;;;;;4.00;3.70;;;27.30;41.10;;;;;;5014040;28;20220;-75
2023/06/12 09:12:16;;;;;;;3.80;3.50;;;27.20;41.20;;;;;;5029767;28;20220;-75
2023/06/12 09:14:45;;;;;;;4.15;3.85;;;27.20;41.20;;;;;;5014902;28;20274;-75
2023/06/12 09:17:12;;;;;;;4.00;3.70;;;27.10;41.30;;;;;;5013732;28;20206;-75
2023/06/12 09:19:43;;;;;;;4.22;3.92;;;27.20;41.20;;;;;;5014911;28;20188;-75
2023/06/12 09:22:10;;;;;;;4.00;3.70;;;27.30;41.10;;;;;;5029823;28;20244;-75
2023/06/12 09:24:37;;;;;;;3.92;3.63;;;27.30;41.10;;;;;;5029707;28;20208;-75
2023/06/12 09:27:04;;;;;;;4.25;3.95;;;27.20;41.00;;;;;;5014008;28;20196;-75
2023/06/12 09:29:33;;;;;;;3.63;3.33;;;27.20;41.10;;;;;;5029660;28;20222;-75
2023/06/12 09:32:01;;;;;;;4.10;3.80;;;27.20;41.20;;;;;;5029494;28;20223;-75
2023/06/12 09:34:29;;;;;;;4.07;3.78;;;27.20;41.00;;;;;;5030096;28;20196;-75
2023/06/12 09:36:56;;;;;;;4.00;3.70;;;27.20;41.10;;;;;;5029551;28;20299;-75
2023/06/12 09:39:27;;;;;;;4.05;3.75;;;27.20;41.10;;;;;;5014453;28;20196;-75
2023/06/12 09:41:54;;;;;;;3.97;3.67;;;27.20;41.10;;;;;;5029478;28;20629;-75
2023/06/12 09:44:22;;;;;;;4.30;4.00;;;27.30;41.00;;;;;;5029372;28;20200;-75
2023/06/12 09:46:49;;;;;;;3.97;3.60;;;27.40;40.90;;;;;;5029320;28;20200;-75
2023/06/12 09:49:21;;;;;;;3.97;3.67;;;27.40;40.90;;;;;;5013001;28;20258;-75
2023/06/12 09:51:50;;;;;;;3.70;3.40;;;27.30;40.90;;;;;;5013071;28;20208;-75
2023/06/12 09:54:17;;;;;;;4.20;3.90;;;27.30;41.10;;;;;;5028878;28;20204;-75
2023/06/12 09:56:45;;;;;;;3.80;3.53;;;27.20;41.10;;;;;;5013124;28;20204;-75
2023/06/12 09:59:16;;;;;;;3.85;3.55;;;27.20;41.20;;;;;;5013129;28;20231;-75
2023/06/12 10:01:46;;;;;;;3.75;3.50;;;27.20;41.80;;;;;;5030096;28;20319;-75
2023/06/12 10:04:13;;;;;;;4.07;3.78;;;27.20;41.20;;;;;;5029325;28;20207;-75
2023/06/12 10:06:42;;;;;;;3.90;3.60;;;27.30;41.20;;;;;;5012794;28;20195;-77
2023/06/12 10:09:09;;;;;;;3.95;3.65;;;27.30;41.00;;;;;;5013952;28;20223;-76
2023/06/12 10:11:37;;;;;;;3.75;3.55;;;27.30;41.00;;;;;;5028875;28;20273;-76
2023/06/12 10:14:04;;;;;;;4.20;3.90;;;27.40;40.90;;;;;;5029526;28;20200;-76
2023/06/12 10:16:31;;;;;;;3.75;3.45;;;27.40;40.90;;;;;;5029009;28;20211;-76
2023/06/12 10:18:58;;;;;;;4.10;3.80;;;27.40;40.90;;;;;;5014238;28;20271;-76
2023/06/12 10:21:25;;;;;;;3.95;3.67;;;27.40;41.00;;;;;;5012860;28;20690;-76
2023/06/12 10:23:54;;;;;;;3.58;3.38;;;27.40;40.90;;;;;;5013948;28;20203;-76
2023/06/12 10:26:22;;;;;;;4.03;3.63;;;27.30;41.00;;;;;;5012473;28;20200;-75
2023/06/12 10:28:49;;;;;;;4.10;3.80;;;27.20;41.10;;;;;;5012701;28;20188;-75
2023/06/12 10:31:17;;;;;;;4.18;3.88;;;27.20;41.20;;;;;;5029440;28;20246;-75
2023/06/12 10:34:03;;;;;;;3.83;3.53;;;27.20;41.30;;;;;;5013831;28;20262;-76
2023/06/12 10:36:39;;;;;;;3.47;3.28;;;27.20;41.40;;;;;;5028969;28;20224;-76
2023/06/12 10:39:14;;;;;;;3.85;3.55;;;27.20;41.40;;;;;;5020862;28;20199;-76
2023/06/12 10:41:57;;;;;;;4.05;3.75;;;27.20;41.40;;;;;;5014066;28;20219;-76
2023/06/12 10:44:41;;;;;;;3.78;3.47;;;27.20;41.40;;;;;;5029806;28;20571;-76
2023/06/12 10:47:18;;;;;;;3.47;3.17;;;27.20;41.50;;;;;;5029024;28;20204;-76
2023/06/12 10:49:58;;;;;;;3.92;3.60;;;27.20;41.40;;;;;;5013931;28;20646;-76
2023/06/12 10:52:25;;;;;;;3.80;3.55;;;27.20;41.50;;;;;;5013032;28;20207;-76
2023/06/12 10:55:25;;;;;;;4.05;3.70;;;27.20;41.60;;;;;;5012909;28;20188;-76
2023/06/12 10:57:54;;;;;;;3.75;3.45;;;27.10;41.70;;;;;;5028953;28;20651;-76
2023/06/12 11:00:22;;;;;;;4.15;3.80;;;27.10;41.80;;;;;;5029034;28;20197;-76
2023/06/12 11:02:57;;;;;;;4.18;3.78;;;27.00;41.90;;;;;;5013713;28;20208;-76
2023/06/12 11:05:24;;;;;;;3.78;3.47;;;27.10;41.90;;;;;;5013922;28;20172;-76
2023/06/12 11:07:51;;;;;;;4.22;3.60;;;27.00;41.90;;;;;;5015804;28;20215;-76
2023/06/12 11:10:18;;;;;;;3.50;3.30;;;27.00;41.90;;;;;;5016132;28;20207;-76
2023/06/12 11:12:48;;;;;;;3.72;3.42;;;27.00;41.90;;;;;;5015899;28;20193;-76
2023/06/12 11:15:17;;;;;;;4.20;3.90;;;27.00;41.90;;;;;;5032383;28;20242;-75
2023/06/12 11:17:44;;;;;;;4.03;3.72;;;27.00;41.90;;;;;;5016775;28;20193;-75
2023/06/12 11:20:13;;;;;;;3.78;3.50;;;27.00;41.90;;;;;;5016989;28;20222;-75
2023/06/12 11:22:40;;;;;;;3.97;3.70;;;27.00;41.90;;;;;;5015668;28;20306;-75
2023/06/12 11:25:08;;;;;;;3.80;3.50;;;27.00;41.90;;;;;;5032247;28;20192;-75
2023/06/12 11:27:36;;;;;;;4.00;3.70;;;26.90;42.00;;;;;;5015487;28;20192;-75
2023/06/12 11:30:10;;;;;;;4.15;3.80;;;26.90;42.00;;;;;;5016093;28;20200;-75
2023/06/12 11:32:39;;;;;;;4.00;3.70;;;26.90;42.00;;;;;;5031873;28;20223;-75
2023/06/12 11:35:08;;;;;;;3.78;3.47;;;26.90;42.10;;;;;;5015282;28;20200;-75
2023/06/12 11:37:36;;;;;;;3.60;3.30;;;26.80;42.10;;;;;;5032661;28;20216;-75
2023/06/12 11:40:09;;;;;;;4.13;3.80;;;26.90;42.20;;;;;;5033156;28;20318;-75
2023/06/12 11:42:37;;;;;;;3.50;3.30;;;26.90;42.20;;;;;;5028231;28;20212;-75
2023/06/12 11:47:41;;;;;;;3.65;3.38;;;26.80;42.20;;;;;;5035886;28;20218;-79
2023/06/12 11:50:11;;;;;;;3.78;3.47;;;26.80;42.30;;;;;;5055244;28;20269;-80
2023/06/12 11:52:39;;;;;;;3.90;3.60;;;26.80;42.30;;;;;;5053920;28;20262;-80
2023/06/12 11:55:09;;;;;;;4.03;3.72;;;26.80;42.30;;;;;;5036992;28;20289;-80
2023/06/12 11:57:37;;;;;;;3.92;3.63;;;26.80;42.40;;;;;;5037559;28;20230;-80
2023/06/12 12:00:09;;;;;;;3.65;3.42;;;26.80;42.40;;;;;;5038103;28;20553;-80
2023/06/12 12:02:40;;;;;;;3.80;3.50;;;26.80;42.40;;;;;;5037401;28;20269;-80
2023/06/12 12:05:10;;;;;;;3.75;3.55;;;26.70;42.40;;;;;;5036184;28;20203;-80
2023/06/12 12:07:39;;;;;;;3.95;3.65;;;26.80;42.50;;;;;;5036793;28;20254;-80
2023/06/12 12:10:08;;;;;;;4.05;3.75;;;26.80;42.60;;;;;;5037827;28;20604;-80
2023/06/12 12:12:42;;;;;;;3.40;3.20;;;26.70;42.50;;;;;;5036593;28;20227;-80
2023/06/12 12:15:10;;;;;;;3.33;3.13;;;26.70;42.60;;;;;;5037627;28;20199;-80
2023/06/12 12:17:37;;;;;;;3.63;3.42;;;26.70;42.60;;;;;;5036642;28;20242;-79
2023/06/12 12:20:06;;;;;;;4.25;3.95;;;26.70;42.70;;;;;;5037542;28;20270;-79
2023/06/12 12:22:38;;;;;;;3.95;3.65;;;26.70;42.70;;;;;;5035711;28;20246;-80
2023/06/12 12:25:06;;;;;;;3.60;3.40;;;26.70;42.70;;;;;;5044506;28;20175;-80
2023/06/12 12:27:33;;;;;;;3.88;3.58;;;26.70;42.70;;;;;;5020530;28;20200;-80
2023/06/12 12:30:01;;;;;;;4.05;3.70;;;26.70;42.70;;;;;;5019767;28;20692;-80
2023/06/12 12:32:28;;;;;;;4.05;3.75;;;26.60;42.70;;;;;;5036410;28;20212;-80
2023/06/12 12:34:55;;;;;;;3.90;3.60;;;26.60;42.80;;;;;;5037198;28;20202;-80
2023/06/12 12:37:22;;;;;;;3.58;3.38;;;26.60;42.80;;;;;;5020484;28;20203;-80
2023/06/12 12:39:50;;;;;;;4.00;3.70;;;26.70;42.90;;;;;;5020289;28;20658;-80
2023/06/12 12:42:18;;;;;;;4.03;3.72;;;26.60;42.90;;;;;;5036930;28;20219;-80
2023/06/12 12:44:45;;;;;;;3.70;3.40;;;26.60;43.60;;;;;;5037246;28;20192;-80
2023/06/12 12:47:12;;;;;;;3.88;3.58;;;26.60;43.00;;;;;;5037058;28;20203;-80
2023/06/12 12:49:39;;;;;;;3.60;3.30;;;26.60;43.00;;;;;;5022092;28;20290;-80
2023/06/12 12:52:07;;;;;;;3.90;3.45;;;26.60;43.00;;;;;;5037070;28;20581;-80
2023/06/12 12:54:34;;;;;;;3.63;3.35;;;26.60;43.10;;;;;;5037181;28;20261;-80
2023/06/12 12:57:03;;;;;;;3.60;3.40;;;26.60;43.10;;;;;;5036847;28;20210;-80
2023/06/12 12:59:30;;;;;;;3.75;3.47;;;26.60;43.70;;;;;;5038275;28;20196;-80
2023/06/12 13:01:57;;;;;;;3.92;3.63;;;26.60;43.20;;;;;;5036567;28;20587;-80